Time;durP1;ratioP1;P1;durP2;ratioP2;P2;SDS_P1;SDS_P2;PMS_P1;PMS_P2;Temp;Humidity;BMP_temperature;BMP_pressure;BME280_temperature;BME280_humidity;BME280_pressure;Samples;Min_cycle;Max_cycle;Signal;HPM_P1;HPM_P2
2023/02/17 00:02:06;;;;;;;58.17;43.65;;;10.20;72.40;;;;;;6278987;22;20329;-77
2023/02/17 00:04:33;;;;;;;53.80;43.28;;;10.20;72.40;;;;;;6306491;22;20067;-77
2023/02/17 00:06:59;;;;;;;53.28;43.67;;;10.30;72.80;;;;;;6306715;22;20170;-76
2023/02/17 00:09:24;;;;;;;55.30;42.80;;;10.30;72.50;;;;;;6306730;22;20046;-77
2023/02/17 00:11:51;;;;;;;55.30;43.58;;;10.40;72.40;;;;;;6278972;22;20023;-77
2023/02/17 00:14:17;;;;;;;55.67;42.47;;;10.40;72.30;;;;;;6306631;22;19996;-76
2023/02/17 00:16:43;;;;;;;58.67;43.13;;;10.40;72.60;;;;;;6279184;22;20018;-77
2023/02/17 00:19:24;;;;;;;56.75;43.03;;;10.30;72.10;;;;;;6306672;22;20432;-77
2023/02/17 00:21:51;;;;;;;56.15;44.30;;;10.40;72.50;;;;;;6306504;22;20086;-76
2023/02/17 00:24:16;;;;;;;56.92;41.45;;;10.40;72.40;;;;;;6306329;22;20023;-77
2023/02/17 00:26:42;;;;;;;51.45;41.25;;;10.50;72.50;;;;;;6306114;22;20011;-77
2023/02/17 00:29:08;;;;;;;56.08;41.42;;;10.50;72.40;;;;;;6279111;22;20031;-77
2023/02/17 00:31:34;;;;;;;51.08;41.63;;;10.40;72.30;;;;;;6325192;22;20027;-77
2023/02/17 00:33:59;;;;;;;54.97;43.17;;;10.30;72.50;;;;;;6317564;22;20006;-76
2023/02/17 00:36:27;;;;;;;56.13;41.42;;;10.30;72.60;;;;;;6306421;22;20000;-75
2023/02/17 00:38:55;;;;;;;58.80;42.58;;;10.20;72.60;;;;;;6279248;22;20083;-77
2023/02/17 00:41:21;;;;;;;52.95;41.00;;;10.20;72.60;;;;;;6306618;22;19999;-77
2023/02/17 00:43:47;;;;;;;54.05;41.13;;;10.30;72.60;;;;;;6306505;22;20495;-77
2023/02/17 00:46:15;;;;;;;52.75;39.90;;;10.30;72.70;;;;;;6306691;22;20012;-77
2023/02/17 00:48:41;;;;;;;55.78;40.60;;;10.30;73.50;;;;;;6279292;22;20015;-76
2023/02/17 00:51:08;;;;;;;48.70;38.05;;;10.30;72.90;;;;;;6306596;22;20003;-77
2023/02/17 00:53:34;;;;;;;48.25;40.08;;;10.30;72.80;;;;;;6306457;22;20046;-77
2023/02/17 00:56:00;;;;;;;48.78;39.22;;;10.40;72.70;;;;;;6306465;22;20003;-78
2023/02/17 00:58:25;;;;;;;53.90;39.17;;;10.40;73.00;;;;;;6306635;22;20004;-78
2023/02/17 01:00:51;;;;;;;50.05;39.38;;;10.40;72.80;;;;;;6278856;22;20007;-76
2023/02/17 01:03:18;;;;;;;49.35;38.97;;;10.40;72.70;;;;;;6278872;22;20030;-77
2023/02/17 01:05:46;;;;;;;50.60;39.65;;;10.40;72.50;;;;;;6278968;22;20455;-78
2023/02/17 01:08:12;;;;;;;49.97;38.90;;;10.40;72.80;;;;;;6306400;22;20086;-75
2023/02/17 01:10:39;;;;;;;50.78;38.67;;;10.40;72.60;;;;;;6306126;22;19999;-78
2023/02/17 01:13:06;;;;;;;47.00;39.10;;;10.40;72.90;;;;;;6306030;22;20009;-76
2023/02/17 01:15:40;;;;;;;52.00;39.83;;;10.40;72.70;;;;;;6305908;22;19999;-76
2023/02/17 01:18:05;;;;;;;47.13;37.85;;;10.50;72.80;;;;;;6305845;22;20010;-76
2023/02/17 01:20:36;;;;;;;46.97;37.42;;;10.50;72.80;;;;;;6278574;22;20345;-77
2023/02/17 01:23:02;;;;;;;51.05;38.53;;;10.60;72.90;;;;;;6306247;22;20011;-77
2023/02/17 01:25:28;;;;;;;50.28;37.92;;;10.60;72.80;;;;;;6306045;22;20000;-76
2023/02/17 01:27:54;;;;;;;48.47;37.63;;;10.50;72.90;;;;;;6306035;22;20447;-77
2023/02/17 01:30:20;;;;;;;46.30;37.45;;;10.40;72.70;;;;;;6305986;22;20078;-76
2023/02/17 01:32:46;;;;;;;49.40;37.20;;;10.50;73.00;;;;;;6306456;22;20441;-77
2023/02/17 01:35:12;;;;;;;53.10;39.08;;;10.50;73.00;;;;;;6306645;22;20005;-75
2023/02/17 01:37:37;;;;;;;45.50;36.53;;;10.50;72.90;;;;;;6307989;22;20414;-76
2023/02/17 01:40:04;;;;;;;47.47;37.20;;;10.40;72.90;;;;;;6308095;22;20066;-77
2023/02/17 01:42:30;;;;;;;48.03;36.38;;;10.40;73.30;;;;;;6280847;22;20022;-75
2023/02/17 01:45:14;;;;;;;47.55;36.38;;;10.50;72.90;;;;;;6307843;22;20015;-76
2023/02/17 01:47:40;;;;;;;46.67;34.47;;;10.50;73.10;;;;;;6307949;22;20007;-77
2023/02/17 01:50:06;;;;;;;44.65;33.92;;;10.50;73.00;;;;;;6308380;22;20302;-75
2023/02/17 01:52:32;;;;;;;44.40;33.45;;;10.50;73.20;;;;;;6280403;22;20011;-76
2023/02/17 01:55:03;;;;;;;46.88;33.67;;;10.40;73.00;;;;;;6308625;22;20009;-75
2023/02/17 01:57:34;;;;;;;49.03;34.55;;;10.30;73.10;;;;;;6304284;22;20010;-76
2023/02/17 02:00:00;;;;;;;45.72;35.30;;;10.30;73.20;;;;;;6323617;22;20052;-77
2023/02/17 02:02:28;;;;;;;49.03;34.67;;;10.20;73.00;;;;;;6307816;22;19999;-76
2023/02/17 02:04:54;;;;;;;44.03;34.60;;;10.30;73.30;;;;;;6280786;22;20050;-76
2023/02/17 02:07:25;;;;;;;50.50;36.03;;;10.40;73.50;;;;;;6280514;22;20496;-75
2023/02/17 02:09:56;;;;;;;45.97;35.83;;;10.40;72.90;;;;;;6308067;22;19995;-77
2023/02/17 02:12:23;;;;;;;51.78;36.65;;;10.40;72.90;;;;;;6307935;22;20034;-77
2023/02/17 02:14:50;;;;;;;51.90;37.45;;;10.40;73.20;;;;;;6307973;22;20064;-77
2023/02/17 02:17:22;;;;;;;41.17;32.88;;;10.30;73.10;;;;;;6280406;22;20340;-75
2023/02/17 02:20:09;;;;;;;41.90;34.38;;;10.30;73.30;;;;;;6307641;22;20014;-76
2023/02/17 02:22:50;;;;;;;45.63;34.58;;;10.30;74.00;;;;;;6307356;22;20029;-76
2023/02/17 02:26:00;;;;;;;44.25;35.10;;;10.30;73.80;;;;;;6307818;22;20026;-76
2023/02/17 02:28:50;;;;;;;46.50;35.50;;;10.40;74.40;;;;;;6248874;22;20042;-76
2023/02/17 02:31:49;;;;;;;46.35;36.20;;;10.30;74.20;;;;;;6308274;22;20082;-76
2023/02/17 02:34:21;;;;;;;44.67;34.70;;;10.30;74.30;;;;;;6307857;22;19999;-76
2023/02/17 02:36:58;;;;;;;45.97;36.85;;;10.30;74.10;;;;;;6307979;22;19999;-76
2023/02/17 02:39:31;;;;;;;50.17;38.50;;;10.20;73.10;;;;;;6307580;22;20482;-76
2023/02/17 02:42:09;;;;;;;44.90;35.00;;;10.20;73.40;;;;;;6308014;22;19999;-77
2023/02/17 09:59:00;;;;;;;25.75;18.13;;;13.90;60.70;;;;;;6275296;22;20058;-79
2023/02/17 10:01:31;;;;;;;23.77;16.70;;;14.00;60.00;;;;;;6307395;22;20006;-79
2023/02/17 10:04:05;;;;;;;20.20;15.55;;;14.00;59.90;;;;;;6307030;22;19999;-80
2023/02/17 10:06:39;;;;;;;;;;;14.10;59.80;;;;;;6306783;22;20013;-81
2023/02/17 10:09:22;;;;;;;14.15;10.82;;;14.10;58.00;;;;;;6307333;22;19899;-78
2023/02/17 10:12:03;;;;;;;19.38;14.02;;;14.20;59.20;;;;;;6281681;22;19999;-81
2023/02/17 10:14:36;;;;;;;19.40;14.95;;;14.30;59.10;;;;;;6324226;22;19987;-76
2023/02/17 10:17:15;;;;;;;23.33;13.80;;;14.30;58.70;;;;;;6315365;22;20014;-80
2023/02/17 10:20:03;;;;;;;19.85;13.82;;;14.40;58.60;;;;;;6306915;22;20003;-80
2023/02/17 10:22:31;;;;;;;18.67;13.50;;;14.50;57.90;;;;;;6307256;22;20006;-80
2023/02/17 10:24:57;;;;;;;16.30;12.77;;;14.50;57.60;;;;;;6280166;22;20029;-80
2023/02/17 10:27:29;;;;;;;18.38;13.30;;;14.50;57.50;;;;;;6306065;22;20015;-79
2023/02/17 10:30:13;;;;;;;17.15;11.48;;;14.60;57.50;;;;;;6308211;22;20034;-79
2023/02/17 10:32:51;;;;;;;19.27;11.75;;;14.60;57.00;;;;;;6280198;22;20014;-78
2023/02/17 10:35:24;;;;;;;16.15;10.90;;;14.70;57.40;;;;;;6311807;22;20325;-80
2023/02/17 10:38:28;;;;;;;21.30;11.77;;;14.80;57.10;;;;;;6307230;22;20003;-81
2023/02/17 10:40:55;;;;;;;16.23;11.73;;;15.00;56.30;;;;;;6282094;22;20065;-80
2023/02/17 10:43:28;;;;;;;13.57;10.45;;;15.10;56.50;;;;;;6309072;22;20364;-81
2023/02/17 10:45:54;;;;;;;;;;;15.10;56.20;;;;;;6308606;22;20078;-79
2023/02/17 10:48:51;;;;;;;14.98;10.48;;;15.00;54.50;;;;;;6305741;22;19942;-79
2023/02/17 10:51:21;;;;;;;13.35;10.18;;;15.10;55.80;;;;;;6307205;22;20015;-77
2023/02/17 10:53:54;;;;;;;16.80;9.77;;;15.10;55.90;;;;;;6307282;22;20007;-80
2023/02/17 10:56:26;;;;;;;14.43;10.48;;;15.20;55.60;;;;;;6304686;22;20018;-82
2023/02/17 10:59:13;;;;;;;13.15;10.23;;;15.20;55.70;;;;;;6306990;22;20015;-80
2023/02/17 11:01:40;;;;;;;16.75;9.40;;;15.30;55.00;;;;;;6279853;22;20090;-81
2023/02/17 11:04:09;;;;;;;13.68;10.07;;;15.50;55.40;;;;;;6307260;22;20057;-76
2023/02/17 11:06:49;;;;;;;14.90;10.10;;;15.50;55.50;;;;;;6304301;22;20445;-81
2023/02/17 11:09:33;;;;;;;17.27;11.40;;;15.50;54.90;;;;;;6307309;22;20464;-79
2023/02/17 11:12:05;;;;;;;14.15;10.85;;;15.50;55.50;;;;;;6304651;22;20071;-76
2023/02/17 11:14:32;;;;;;;14.43;10.00;;;15.40;55.50;;;;;;6273054;22;20004;-77
2023/02/17 11:17:11;;;;;;;11.48;8.77;;;15.40;56.30;;;;;;6304299;22;20003;-79
2023/02/17 11:19:37;;;;;;;17.83;9.13;;;15.20;56.10;;;;;;6307132;22;20053;-77
2023/02/17 11:22:24;;;;;;;15.38;9.68;;;15.00;56.50;;;;;;6279623;22;20011;-80
2023/02/17 11:24:58;;;;;;;19.60;10.18;;;14.90;56.70;;;;;;6307041;22;20049;-79
2023/02/17 11:27:25;;;;;;;18.40;9.82;;;14.80;57.00;;;;;;6303886;22;20014;-80
2023/02/17 11:29:51;;;;;;;15.52;10.30;;;14.80;57.20;;;;;;6273940;22;20103;-80
2023/02/17 11:32:18;;;;;;;17.23;11.32;;;14.80;57.40;;;;;;6276514;22;20013;-79
2023/02/17 11:34:56;;;;;;;15.68;10.15;;;14.90;57.50;;;;;;6276941;22;19996;-79
2023/02/17 11:37:23;;;;;;;15.27;9.88;;;15.00;57.30;;;;;;6272847;22;20007;-80
2023/02/17 11:39:52;;;;;;;18.02;10.18;;;14.90;57.20;;;;;;6275953;22;19996;-75
2023/02/17 11:42:28;;;;;;;15.13;10.85;;;14.90;57.40;;;;;;6276319;22;20007;-73
2023/02/17 11:44:56;;;;;;;15.88;10.40;;;15.00;57.60;;;;;;6276440;22;20022;-79
2023/02/17 11:47:46;;;;;;;16.08;9.82;;;15.10;57.60;;;;;;6272114;22;20007;-78
2023/02/17 11:50:30;;;;;;;11.95;9.35;;;15.10;57.30;;;;;;6276175;22;20082;-77
2023/02/17 11:52:58;;;;;;;12.52;9.50;;;15.10;57.10;;;;;;6276376;22;20007;-77
2023/02/17 11:56:07;;;;;;;14.90;10.50;;;15.20;57.20;;;;;;6276032;22;20306;-78
2023/02/17 11:59:03;;;;;;;12.43;8.20;;;15.30;57.00;;;;;;6233893;22;20104;-73
2023/02/17 12:01:41;;;;;;;13.68;8.90;;;15.50;56.90;;;;;;6276116;22;20087;-78
2023/02/17 12:04:30;;;;;;;13.98;8.32;;;15.70;56.70;;;;;;6274409;22;20094;-74
2023/02/17 12:07:05;;;;;;;14.60;8.27;;;15.90;55.70;;;;;;6277983;22;20004;-73
2023/02/17 12:09:56;;;;;;;11.23;8.27;;;16.00;55.40;;;;;;6288832;22;20034;-76
2023/02/17 12:12:40;;;;;;;11.32;7.60;;;16.00;55.60;;;;;;6281112;22;20038;-73
2023/02/17 12:15:06;;;;;;;10.45;7.35;;;16.00;55.20;;;;;;6272793;22;20012;-78
2023/02/17 12:17:59;;;;;;;10.45;6.95;;;16.30;55.60;;;;;;6272482;22;20003;-78
2023/02/17 12:20:34;;;;;;;12.27;7.77;;;16.50;55.30;;;;;;6275419;22;20071;-78
2023/02/17 12:23:21;;;;;;;11.30;7.78;;;16.50;55.10;;;;;;6275124;22;20250;-76
2023/02/17 12:26:12;;;;;;;10.93;7.22;;;16.60;54.20;;;;;;6274754;22;20030;-76
2023/02/17 12:28:52;;;;;;;11.57;7.47;;;16.70;53.80;;;;;;6273835;22;20019;-74
2023/02/17 12:31:36;;;;;;;12.07;7.45;;;16.80;52.50;;;;;;6275365;22;20491;-77
2023/02/17 12:34:11;;;;;;;;;;;16.90;54.70;;;;;;6274684;22;20011;-76
2023/02/17 12:36:39;;;;;;;10.73;7.18;;;16.90;51.70;;;;;;6272556;22;20290;-78
2023/02/17 12:39:23;;;;;;;9.93;6.97;;;16.80;52.50;;;;;;6276185;22;20003;-77
2023/02/17 12:42:04;;;;;;;12.02;7.80;;;16.70;53.80;;;;;;6275282;22;20337;-75
2023/02/17 12:44:42;;;;;;;15.60;8.13;;;16.60;52.60;;;;;;6275880;22;19996;-78
2023/02/17 12:47:55;;;;;;;10.82;7.55;;;16.60;52.70;;;;;;6269615;22;20012;-78
2023/02/17 12:50:26;;;;;;;12.68;7.65;;;16.70;53.60;;;;;;6255441;22;20007;-77
2023/02/17 12:52:56;;;;;;;10.15;7.00;;;17.00;52.50;;;;;;6275938;22;19999;-74
2023/02/17 12:55:51;;;;;;;9.45;7.50;;;17.10;51.90;;;;;;6275463;22;20020;-76
2023/02/17 12:58:24;;;;;;;9.82;7.57;;;17.20;51.80;;;;;;6253454;22;20065;-74
2023/02/17 13:00:56;;;;;;;12.13;7.55;;;17.30;51.50;;;;;;6275507;22;20023;-73
2023/02/17 13:03:21;;;;;;;10.55;8.18;;;17.50;51.00;;;;;;6275525;22;20010;-77
2023/02/17 13:05:50;;;;;;;12.60;8.38;;;17.50;51.30;;;;;;6275980;22;20003;-76
2023/02/17 13:08:26;;;;;;;14.27;8.68;;;17.30;50.90;;;;;;6276523;22;20061;-75
2023/02/17 13:11:05;;;;;;;12.00;8.45;;;17.10;50.90;;;;;;6280134;22;20075;-79
2023/02/17 13:13:33;;;;;;;12.93;9.07;;;17.00;51.10;;;;;;6275600;22;20113;-78
2023/02/17 13:16:06;;;;;;;11.60;8.45;;;16.80;51.40;;;;;;6275506;22;19999;-78
2023/02/17 13:18:39;;;;;;;12.00;8.30;;;16.70;51.70;;;;;;6273020;22;20003;-80
2023/02/17 13:21:26;;;;;;;14.98;8.50;;;16.50;51.30;;;;;;6287355;22;19992;-75
2023/02/17 13:24:06;;;;;;;11.82;7.63;;;16.30;51.20;;;;;;6281868;22;20000;-76
2023/02/17 13:26:36;;;;;;;12.35;8.07;;;16.20;52.50;;;;;;6272017;22;20016;-76
2023/02/17 13:29:24;;;;;;;14.63;8.13;;;16.20;51.40;;;;;;6275552;22;20462;-76
2023/02/17 13:31:56;;;;;;;12.25;8.82;;;16.10;52.50;;;;;;6277907;22;20018;-77
2023/02/17 13:34:35;;;;;;;11.38;8.07;;;16.00;52.70;;;;;;6278720;22;19999;-78
2023/02/17 13:37:18;;;;;;;11.50;7.53;;;15.90;53.00;;;;;;6273343;22;20007;-78
2023/02/17 13:39:45;;;;;;;9.98;7.22;;;15.80;53.00;;;;;;6277549;22;20037;-76
2023/02/17 13:42:49;;;;;;;10.75;7.07;;;15.70;52.10;;;;;;6276340;22;20050;-77
2023/02/17 13:45:41;;;;;;;11.68;7.78;;;15.60;53.40;;;;;;6230552;22;20062;-78
2023/02/17 13:48:26;;;;;;;11.27;7.95;;;15.60;52.60;;;;;;6274213;22;20023;-79
2023/02/17 13:50:55;;;;;;;10.65;7.32;;;15.70;53.70;;;;;;6276095;22;20003;-78
2023/02/17 13:53:27;;;;;;;11.05;7.75;;;15.70;52.40;;;;;;6277903;22;19996;-76
2023/02/17 13:55:55;;;;;;;9.27;6.50;;;15.80;52.80;;;;;;6277491;22;20314;-79
2023/02/17 13:58:23;;;;;;;11.57;6.85;;;15.80;52.60;;;;;;6274892;22;20071;-78
2023/02/17 14:00:50;;;;;;;10.52;6.80;;;16.00;52.60;;;;;;6276385;22;20012;-77
2023/02/17 14:03:29;;;;;;;8.73;6.00;;;16.10;52.60;;;;;;6277965;22;20031;-76
2023/02/17 14:05:57;;;;;;;9.82;6.40;;;16.10;53.70;;;;;;6277891;22;20010;-75
2023/02/17 14:08:35;;;;;;;10.00;6.40;;;16.20;52.80;;;;;;6282402;22;20007;-77
2023/02/17 14:11:13;;;;;;;10.70;6.20;;;16.20;53.90;;;;;;6291927;22;20000;-77
2023/02/17 14:13:41;;;;;;;8.48;5.88;;;16.00;54.00;;;;;;6286117;22;20023;-76
2023/02/17 14:16:24;;;;;;;11.40;6.70;;;16.00;53.00;;;;;;6278701;22;19996;-76
2023/02/17 14:19:03;;;;;;;12.05;6.95;;;16.00;53.20;;;;;;6276971;22;20430;-76
2023/02/17 14:21:29;;;;;;;9.00;6.57;;;16.20;54.30;;;;;;6275525;22;20014;-76
2023/02/17 14:23:56;;;;;;;10.27;6.45;;;16.40;53.10;;;;;;6277327;22;20325;-77
2023/02/17 14:26:38;;;;;;;10.82;7.03;;;16.50;53.00;;;;;;6275478;22;19999;-78
2023/02/17 14:29:07;;;;;;;9.75;6.55;;;16.60;54.20;;;;;;6277040;22;20091;-77
2023/02/17 14:31:47;;;;;;;9.23;6.78;;;16.60;53.30;;;;;;6274936;22;20015;-75
2023/02/17 14:34:34;;;;;;;10.68;7.15;;;16.80;53.10;;;;;;6274796;22;20004;-80
2023/02/17 14:37:06;;;;;;;11.45;6.80;;;17.00;53.00;;;;;;6271586;22;20471;-79
2023/02/17 14:39:32;;;;;;;9.45;6.70;;;17.10;53.10;;;;;;6294990;22;19996;-77
2023/02/17 14:41:58;;;;;;;9.02;6.38;;;17.20;53.30;;;;;;6287048;22;20007;-80
2023/02/17 14:44:23;;;;;;;9.13;5.55;;;17.20;53.00;;;;;;6276829;22;20443;-79
2023/02/17 14:46:49;;;;;;;11.30;6.47;;;17.10;53.30;;;;;;6273597;22;20011;-78
2023/02/17 14:49:15;;;;;;;10.10;5.65;;;17.00;53.00;;;;;;6277139;22;19999;-78
2023/02/17 14:51:40;;;;;;;8.30;5.40;;;17.00;53.30;;;;;;6276614;22;20000;-78
2023/02/17 14:54:15;;;;;;;7.78;5.90;;;16.90;53.40;;;;;;6276469;22;20000;-78
2023/02/17 14:56:48;;;;;;;7.93;5.55;;;16.90;53.50;;;;;;6273954;22;20015;-75
2023/02/17 14:59:13;;;;;;;10.17;5.93;;;17.00;53.40;;;;;;6275062;22;20444;-75
2023/02/17 15:01:39;;;;;;;8.32;5.90;;;17.00;53.90;;;;;;6273807;22;20296;-74
2023/02/17 15:04:05;;;;;;;10.32;6.45;;;16.90;53.60;;;;;;6274682;22;20003;-74
2023/02/17 15:06:43;;;;;;;8.25;5.72;;;16.80;53.80;;;;;;6272792;22;20003;-74
2023/02/17 15:09:15;;;;;;;9.13;6.25;;;16.70;53.80;;;;;;6276445;22;20007;-73
2023/02/17 15:11:44;;;;;;;9.15;5.97;;;16.60;53.70;;;;;;6276699;22;19995;-74
2023/02/17 15:14:15;;;;;;;9.07;5.90;;;16.60;54.00;;;;;;6275814;22;20051;-75
2023/02/17 15:16:41;;;;;;;9.63;6.13;;;16.50;54.00;;;;;;6272994;22;20103;-75
2023/02/17 15:19:08;;;;;;;8.65;6.22;;;16.50;54.50;;;;;;6275665;22;20006;-74
2023/02/17 15:21:36;;;;;;;10.55;6.07;;;16.40;54.30;;;;;;6275739;22;20011;-75
2023/02/17 15:24:05;;;;;;;9.52;6.00;;;16.40;54.50;;;;;;6275971;22;20019;-75
2023/02/17 15:26:31;;;;;;;14.48;6.22;;;16.40;54.90;;;;;;6273251;22;20004;-76
2023/02/17 15:28:57;;;;;;;10.80;6.88;;;16.30;54.60;;;;;;6276660;22;20445;-76
2023/02/17 15:31:25;;;;;;;13.32;6.47;;;16.30;55.20;;;;;;6276685;22;20049;-79
2023/02/17 15:33:56;;;;;;;10.95;6.35;;;16.30;55.40;;;;;;6274329;22;20008;-77
2023/02/17 15:36:23;;;;;;;10.80;7.50;;;16.40;55.20;;;;;;6272467;22;20022;-76
2023/02/17 15:38:48;;;;;;;11.07;5.95;;;16.30;55.30;;;;;;6275366;22;20020;-79
2023/02/17 15:41:22;;;;;;;9.57;6.65;;;16.30;55.90;;;;;;6276096;22;19999;-82
2023/02/17 15:43:48;;;;;;;;;;;16.20;56.00;;;;;;6276418;22;20074;-74
2023/02/17 15:46:16;;;;;;;8.05;6.47;;;16.10;56.50;;;;;;6273607;22;19941;-74
2023/02/17 15:48:44;;;;;;;9.88;7.05;;;16.00;56.40;;;;;;6274056;22;20482;-75
2023/02/17 15:51:13;;;;;;;8.13;6.50;;;16.00;56.90;;;;;;6275603;22;20065;-74
2023/02/17 15:53:40;;;;;;;10.73;6.82;;;15.90;57.30;;;;;;6275100;22;20010;-75
2023/02/17 15:56:19;;;;;;;13.98;10.48;;;15.80;57.40;;;;;;6293878;22;20027;-74
2023/02/17 15:58:45;;;;;;;9.88;7.20;;;15.70;57.70;;;;;;6272863;22;20410;-78
2023/02/17 16:01:26;;;;;;;9.68;7.35;;;15.60;58.10;;;;;;6276804;22;20026;-75
2023/02/17 16:03:53;;;;;;;10.57;7.18;;;15.50;58.30;;;;;;6276044;22;20080;-76
2023/02/17 16:06:19;;;;;;;10.77;6.93;;;15.40;58.40;;;;;;6273598;22;20031;-73
2023/02/17 16:08:45;;;;;;;12.07;7.53;;;15.30;58.70;;;;;;6272758;22;20011;-74
2023/02/17 16:11:14;;;;;;;11.60;7.63;;;15.20;58.90;;;;;;6275945;22;19995;-74
2023/02/17 16:13:43;;;;;;;8.52;7.03;;;15.20;59.00;;;;;;6276073;22;20317;-75
2023/02/17 16:16:17;;;;;;;14.70;7.28;;;15.10;59.10;;;;;;6273845;22;20003;-74
2023/02/17 16:18:44;;;;;;;12.27;8.00;;;15.00;59.40;;;;;;6274229;22;20026;-74
2023/02/17 16:21:11;;;;;;;10.70;7.93;;;14.90;59.60;;;;;;6275271;22;20283;-73
2023/02/17 16:23:37;;;;;;;11.82;7.32;;;14.80;59.80;;;;;;6275601;22;20344;-74
2023/02/17 16:26:04;;;;;;;12.75;7.68;;;14.80;60.30;;;;;;6275241;22;20007;-74
2023/02/17 16:28:31;;;;;;;10.63;7.40;;;14.70;60.10;;;;;;6271682;22;20031;-75
2023/02/17 16:30:57;;;;;;;12.95;7.57;;;14.70;60.50;;;;;;6275755;22;20074;-74
2023/02/17 16:33:23;;;;;;;14.23;8.15;;;14.60;60.70;;;;;;6275132;22;20456;-73
2023/02/17 16:35:50;;;;;;;11.80;8.45;;;14.50;61.20;;;;;;6276503;22;20027;-74
2023/02/17 16:38:21;;;;;;;14.68;8.65;;;14.40;61.40;;;;;;6268762;22;20007;-74
2023/02/17 16:40:49;;;;;;;10.23;7.55;;;14.30;61.20;;;;;;6275698;22;20000;-76
2023/02/17 16:43:18;;;;;;;10.73;8.10;;;14.30;61.70;;;;;;6274716;22;20072;-75
2023/02/17 16:45:56;;;;;;;20.27;10.00;;;14.30;62.00;;;;;;6275612;22;20410;-74
2023/02/17 16:48:25;;;;;;;14.00;8.93;;;14.20;62.70;;;;;;6272199;22;20346;-75
2023/02/17 16:50:51;;;;;;;11.65;9.68;;;14.10;62.20;;;;;;6275767;22;20066;-75
2023/02/17 16:53:17;;;;;;;14.65;9.63;;;14.10;62.70;;;;;;6274785;22;20533;-75
2023/02/17 16:55:44;;;;;;;14.15;9.13;;;14.10;62.70;;;;;;6276481;22;20035;-73
2023/02/17 16:58:18;;;;;;;12.20;9.02;;;14.00;63.00;;;;;;6272130;22;20000;-76
2023/02/17 17:00:46;;;;;;;12.95;8.95;;;13.90;63.20;;;;;;6275692;22;20003;-74
2023/02/17 17:03:11;;;;;;;14.98;9.57;;;13.90;63.40;;;;;;6273868;22;20437;-74
2023/02/17 17:05:38;;;;;;;14.07;9.85;;;13.90;63.60;;;;;;6276357;22;20014;-74
2023/02/17 17:08:05;;;;;;;13.07;9.88;;;13.90;63.60;;;;;;6271604;22;20345;-76
2023/02/17 17:10:32;;;;;;;13.45;10.55;;;13.90;64.00;;;;;;6279976;22;20004;-75
2023/02/17 17:12:59;;;;;;;13.73;10.13;;;13.90;64.30;;;;;;6293645;22;20033;-74
2023/02/17 17:15:25;;;;;;;12.65;10.05;;;13.80;64.60;;;;;;6273250;22;20095;-73
2023/02/17 17:17:55;;;;;;;14.18;10.60;;;13.70;64.60;;;;;;6272561;22;20129;-74
2023/02/17 17:20:26;;;;;;;16.45;10.40;;;13.70;64.80;;;;;;6275169;22;20054;-74
2023/02/17 17:22:52;;;;;;;13.38;10.20;;;13.70;65.10;;;;;;6276454;22;20016;-74
2023/02/17 17:25:18;;;;;;;24.17;10.57;;;13.70;65.20;;;;;;6276511;22;20364;-76
2023/02/17 22:17:16;;;;;;;41.70;29.05;;;11.50;75.50;;;;;;6272168;22;20046;-75
2023/02/17 22:19:42;;;;;;;40.50;27.98;;;11.50;75.30;;;;;;6306019;22;20007;-76
2023/02/17 22:22:08;;;;;;;41.55;28.13;;;11.50;75.70;;;;;;6307493;22;20006;-75
2023/02/17 22:24:34;;;;;;;38.63;28.58;;;11.40;75.40;;;;;;6307268;22;20006;-75
2023/02/17 22:27:00;;;;;;;43.10;28.13;;;11.40;75.60;;;;;;6279518;22;20015;-76
2023/02/17 22:29:25;;;;;;;44.42;30.92;;;11.30;75.70;;;;;;6307707;22;20006;-76
2023/02/17 22:31:54;;;;;;;41.47;29.33;;;11.30;76.00;;;;;;6307505;22;20364;-76
2023/02/17 22:34:21;;;;;;;43.22;29.65;;;11.30;75.90;;;;;;6307462;22;20027;-74
2023/02/17 22:36:47;;;;;;;42.15;32.10;;;11.30;75.70;;;;;;6307143;22;20013;-75
2023/02/17 22:39:14;;;;;;;42.67;30.40;;;11.30;75.70;;;;;;6305730;22;20003;-70
2023/02/17 22:41:39;;;;;;;46.28;31.73;;;11.30;75.50;;;;;;6307308;22;19996;-73
2023/02/17 22:44:06;;;;;;;39.85;29.98;;;11.30;75.60;;;;;;6279441;22;20343;-73
2023/02/17 22:46:33;;;;;;;47.22;30.85;;;11.30;75.30;;;;;;6307436;22;19995;-73
2023/02/17 22:48:59;;;;;;;40.90;30.17;;;11.20;75.20;;;;;;6307849;22;20313;-73
2023/02/17 22:51:30;;;;;;;42.53;31.20;;;11.10;75.30;;;;;;6307263;22;19995;-73
2023/02/17 22:53:58;;;;;;;43.47;31.00;;;11.00;75.00;;;;;;6306489;22;20011;-73
2023/02/17 22:56:24;;;;;;;43.42;30.73;;;10.90;74.90;;;;;;6307027;22;20426;-73
2023/02/17 22:58:55;;;;;;;43.03;31.25;;;10.90;75.30;;;;;;6307003;22;20072;-72
2023/02/17 23:01:21;;;;;;;45.15;30.88;;;10.80;74.90;;;;;;6307307;22;20027;-73
2023/02/17 23:03:49;;;;;;;39.55;29.92;;;10.90;75.10;;;;;;6307145;22;20066;-74
2023/02/17 23:06:30;;;;;;;41.13;29.92;;;10.90;75.20;;;;;;6307300;22;20005;-72
2023/02/17 23:08:57;;;;;;;42.95;30.30;;;10.90;75.00;;;;;;6306526;22;20015;-73
2023/02/17 23:14:34;;;;;;;34.92;28.70;;;10.80;75.00;;;;;;6307296;22;20011;-74
2023/02/17 23:17:08;;;;;;;39.72;29.25;;;10.80;74.90;;;;;;6306061;22;20019;-73
2023/02/17 23:19:35;;;;;;;40.63;28.58;;;10.80;74.80;;;;;;6307401;22;19999;-72
2023/02/17 23:22:05;;;;;;;37.35;28.38;;;10.80;75.00;;;;;;6307283;22;20056;-72
2023/02/17 23:24:31;;;;;;;49.22;34.35;;;10.80;74.70;;;;;;6306202;22;20074;-73
2023/02/17 23:26:59;;;;;;;39.88;28.70;;;10.80;74.70;;;;;;6307083;22;20062;-72
2023/02/17 23:29:25;;;;;;;42.20;28.48;;;10.90;74.70;;;;;;6308841;22;19995;-73
2023/02/17 23:31:51;;;;;;;41.55;28.48;;;10.90;74.60;;;;;;6279679;22;20019;-73
2023/02/17 23:34:17;;;;;;;39.30;27.92;;;10.90;74.70;;;;;;6279777;22;20012;-72
2023/02/17 23:36:44;;;;;;;38.47;28.58;;;10.90;74.70;;;;;;6307310;22;20003;-73
2023/02/17 23:39:10;;;;;;;37.70;27.63;;;10.90;74.50;;;;;;6306562;22;20042;-73
2023/02/17 23:41:38;;;;;;;39.67;30.05;;;10.90;74.50;;;;;;6307143;22;20006;-73
2023/02/17 23:44:06;;;;;;;36.35;28.27;;;10.90;74.60;;;;;;6279965;22;20336;-73
2023/02/17 23:46:32;;;;;;;35.53;29.33;;;10.80;75.00;;;;;;6307732;22;20037;-72
2023/02/17 23:48:58;;;;;;;37.30;28.92;;;10.80;74.30;;;;;;6280254;22;20015;-73
2023/02/17 23:51:23;;;;;;;42.45;28.13;;;10.80;74.50;;;;;;6307541;22;20030;-74
2023/02/17 23:53:49;;;;;;;41.22;28.17;;;10.70;74.90;;;;;;6306537;22;20070;-73
2023/02/17 23:56:31;;;;;;;38.35;28.92;;;10.60;74.90;;;;;;6279573;22;20007;-71
2023/02/17 23:58:56;;;;;;;36.88;29.80;;;10.50;74.90;;;;;;6307464;22;20090;-73
